createdAt,value
2019-05-29T18:51:06.067Z,31.25
2019-05-29T18:56:03.437Z,270.75
2019-05-29T18:58:32.656Z,312.50
2019-05-29T19:01:01.896Z,330.00
2019-05-29T19:03:32.616Z,340.40
2019-05-29T19:06:01.983Z,318.75
2019-05-29T19:08:31.915Z,311.75
2019-05-29T19:11:01.202Z,314.00
2019-05-29T19:13:30.444Z,305.00
2019-05-29T19:15:59.660Z,318.50
2019-05-29T19:18:30.134Z,309.00
2019-05-29T19:20:59.357Z,299.50
2019-05-29T19:23:28.809Z,326.00
2019-05-29T19:25:57.920Z,41.25
2019-05-29T19:28:27.121Z,48.25
2019-05-29T19:30:56.234Z,35.75
2019-05-29T19:33:25.414Z,47.75
2019-05-29T19:35:54.631Z,46.25
2019-05-29T19:38:23.838Z,48.00
2019-05-29T19:40:53.061Z,51.50
2019-05-29T19:43:22.584Z,50.75
2019-05-29T19:45:51.764Z,43.00
2019-05-29T19:48:20.895Z,46.25
2019-05-29T19:50:50.025Z,51.25
2019-05-29T19:53:19.220Z,45.75
2019-05-29T19:55:48.443Z,46.75
2019-05-29T19:58:17.622Z,61.00
2019-05-29T20:00:46.719Z,58.00
2019-05-29T20:03:15.926Z,57.00
2019-05-29T20:05:45.125Z,57.50
2019-05-29T20:08:14.326Z,57.50
2019-05-29T20:10:43.442Z,57.00
2019-05-29T20:13:12.633Z,64.25
2019-05-29T20:15:41.821Z,64.00
2019-05-29T20:18:10.931Z,65.00
2019-05-29T20:20:40.053Z,68.00
2019-05-29T20:23:09.239Z,66.75
2019-05-29T20:25:39.073Z,72.25
2019-05-29T20:28:08.367Z,75.75
2019-05-29T20:30:38.715Z,66.25
2019-05-29T20:33:08.026Z,66.50
2019-05-29T20:35:37.161Z,75.00
2019-05-29T20:38:06.823Z,67.00
2019-05-29T20:40:37.209Z,68.25
2019-05-29T20:43:06.516Z,71.50
2019-05-29T20:45:35.644Z,74.75
2019-05-29T20:48:04.887Z,79.00
2019-05-29T20:50:34.899Z,73.75
2019-05-29T20:53:04.119Z,74.00
2019-05-29T20:55:33.522Z,74.75
2019-05-29T20:58:02.666Z,72.75
2019-05-29T21:00:31.957Z,72.50
2019-05-29T21:03:01.048Z,68.75
2019-05-29T21:05:30.253Z,69.00
2019-05-29T21:07:59.448Z,71.75
2019-05-29T21:10:28.633Z,65.50
2019-05-29T21:12:57.843Z,65.50
2019-05-29T21:15:27.027Z,64.25
2019-05-29T21:17:56.261Z,69.50
2019-05-29T21:20:29.019Z,66.75
2019-05-29T21:22:56.363Z,62.75
2019-05-29T21:25:25.574Z,55.75
2019-05-29T21:27:54.689Z,64.50
2019-05-29T21:30:26.721Z,64.25
2019-05-29T21:32:55.910Z,52.00
2019-05-29T21:35:25.118Z,58.25
2019-05-29T21:37:54.323Z,56.75
2019-05-29T21:40:23.520Z,58.75
2019-05-29T21:42:52.728Z,53.50
2019-05-29T21:45:21.909Z,49.50
2019-05-29T21:47:51.098Z,55.50
2019-05-29T21:50:20.276Z,56.75
2019-05-29T21:52:49.491Z,62.50
2019-05-29T21:55:20.209Z,70.75
2019-05-29T21:57:50.356Z,67.00
2019-05-29T22:00:42.574Z,65.25
2019-05-29T22:03:11.758Z,69.50
2019-05-29T22:05:41.069Z,61.00
2019-05-29T22:08:10.251Z,69.25
2019-05-29T22:10:39.534Z,70.50
2019-05-29T22:13:08.731Z,59.25
2019-05-29T22:15:37.908Z,71.00
2019-05-29T22:18:07.132Z,69.00
2019-05-29T22:20:36.321Z,54.75
2019-05-29T22:23:05.499Z,69.00
2019-05-29T22:25:34.872Z,73.75
2019-05-29T22:28:04.088Z,68.50
2019-05-29T22:30:33.302Z,68.50
2019-05-29T22:33:02.492Z,72.00
2019-05-29T22:35:31.666Z,70.25
2019-05-29T22:38:01.835Z,67.25
2019-05-29T22:40:31.115Z,63.00
2019-05-29T22:43:00.301Z,63.00
2019-05-29T22:45:29.476Z,59.25
2019-05-29T22:47:59.817Z,54.25
2019-05-29T22:50:29.071Z,55.50
2019-05-29T22:52:58.236Z,66.25
2019-05-29T22:55:27.449Z,57.00
2019-05-29T22:57:56.507Z,51.25
2019-05-29T23:00:25.687Z,55.50
2019-05-29T23:02:56.020Z,51.50
2019-05-29T23:05:25.379Z,54.25
2019-05-29T23:07:54.488Z,54.00
2019-05-29T23:10:23.684Z,63.50
2019-05-29T23:12:53.014Z,56.00
2019-05-29T23:15:23.380Z,52.00
2019-05-29T23:17:52.906Z,53.25
2019-05-29T23:20:22.131Z,54.50
2019-05-29T23:22:52.461Z,57.25
2019-05-29T23:25:21.718Z,59.50
2019-05-29T23:27:50.934Z,52.00
2019-05-29T23:30:20.133Z,54.75
2019-05-29T23:32:49.319Z,61.50
2019-05-29T23:35:18.492Z,59.75
2019-05-29T23:37:47.689Z,58.25
2019-05-29T23:40:16.815Z,55.75
2019-05-29T23:42:45.995Z,60.75
2019-05-29T23:45:15.276Z,49.25
2019-05-29T23:47:44.368Z,56.50
2019-05-29T23:50:13.769Z,60.00
2019-05-29T23:52:42.968Z,60.75
2019-05-29T23:55:13.469Z,53.50
2019-05-29T23:57:42.659Z,63.50
